Terminal Aerodrome Forecast
Issued by NWS

Current Version | Previous Version | Text Only | Print | Product List | Glossary On
Versions: 1 2 3 4 5 6 7 8 9 10 11 12 13 14 15
000
FTUS43 KEAX 271209 AAA
TAFMKC
TAF AMD
KMKC 271209Z 2712/2812 08008KT P6SM SCT050
      TEMPO 2713/2715 5SM -TSRA BKN040CB
     FM271700 09009KT P6SM BKN035
      TEMPO 2718/2721 5SM -TSRA BKN030CB
     FM280300 36007KT P6SM OVC025
     FM280900 33008KT P6SM OVC035=

USA.gov is the U.S. government's official web portal to all federal, state and local government web resources and services.